createdAt,value
2023-12-09T00:00:47.236Z,18.00
2023-12-09T00:03:36.148Z,17.90
2023-12-09T00:06:05.596Z,18.60
2023-12-09T00:08:34.031Z,20.80
2023-12-09T00:11:02.517Z,21.10
2023-12-09T00:13:33.438Z,19.50
2023-12-09T00:16:01.799Z,19.60
2023-12-09T00:18:30.212Z,20.70
2023-12-09T00:20:58.998Z,20.90
2023-12-09T00:23:27.673Z,19.80
2023-12-09T00:25:56.041Z,19.60
2023-12-09T00:28:24.406Z,19.50
2023-12-09T00:30:52.992Z,19.50
2023-12-09T00:33:21.593Z,18.00
2023-12-09T00:35:50.580Z,20.20
2023-12-09T00:38:18.983Z,19.80
2023-12-09T00:40:47.318Z,20.50
2023-12-09T00:43:15.732Z,18.70
2023-12-09T00:45:44.046Z,18.30
2023-12-09T00:48:12.861Z,17.30
2023-12-09T00:50:41.579Z,17.60
2023-12-09T00:53:10.203Z,17.00
2023-12-09T00:55:38.586Z,17.40
2023-12-09T00:58:07.023Z,16.40
2023-12-09T01:00:35.350Z,16.80
2023-12-09T01:03:03.745Z,18.40
2023-12-09T01:05:32.226Z,17.60
2023-12-09T01:08:00.609Z,17.60
2023-12-09T01:10:28.795Z,15.60
2023-12-09T01:12:57.131Z,18.60
2023-12-09T01:15:25.443Z,18.80
2023-12-09T01:17:53.894Z,19.20
2023-12-09T01:20:22.406Z,19.70
2023-12-09T01:22:50.693Z,19.80
2023-12-09T01:25:19.660Z,20.30
2023-12-09T01:27:48.290Z,19.90
2023-12-09T01:30:16.762Z,19.20
2023-12-09T01:32:45.439Z,20.70
2023-12-09T01:35:14.111Z,21.70
2023-12-09T01:37:44.950Z,19.90
2023-12-09T01:40:17.192Z,18.70
2023-12-09T01:42:46.628Z,18.60
2023-12-09T01:45:15.198Z,18.80
2023-12-09T01:47:44.819Z,18.20
2023-12-09T01:50:13.405Z,17.40
2023-12-09T01:52:42.813Z,16.70
2023-12-09T01:55:12.294Z,19.40
2023-12-09T01:57:40.766Z,19.80
2023-12-09T02:00:11.129Z,19.80
2023-12-09T02:02:39.634Z,19.30
2023-12-09T02:05:09.104Z,21.40
2023-12-09T02:07:37.309Z,22.10
2023-12-09T02:10:07.177Z,19.90
2023-12-09T02:12:49.535Z,21.40
2023-12-09T02:15:51.657Z,20.10
2023-12-09T02:18:20.813Z,21.40
2023-12-09T02:20:49.213Z,20.50
2023-12-09T02:23:17.792Z,21.90
2023-12-09T02:25:50.418Z,21.10
2023-12-09T02:28:25.010Z,21.30
2023-12-09T02:31:10.476Z,20.00
2023-12-09T02:33:41.906Z,20.20
2023-12-09T02:36:18.809Z,17.50
2023-12-09T02:38:50.276Z,18.30
2023-12-09T02:41:20.335Z,18.10
2023-12-09T02:43:49.069Z,18.00
2023-12-09T02:46:17.425Z,16.70
2023-12-09T02:48:46.457Z,18.80
2023-12-09T02:51:15.149Z,18.10
2023-12-09T02:53:45.740Z,18.10
2023-12-09T02:56:14.621Z,17.20
2023-12-09T02:58:43.746Z,19.10
2023-12-09T03:01:12.595Z,17.70
2023-12-09T03:03:41.213Z,18.80
2023-12-09T03:06:09.789Z,18.30
2023-12-09T03:08:38.446Z,19.40
2023-12-09T03:11:07.439Z,19.40
2023-12-09T03:13:36.637Z,18.10
2023-12-09T03:16:05.810Z,20.60
2023-12-09T03:18:34.526Z,21.70
2023-12-09T03:21:02.984Z,21.30
2023-12-09T03:23:31.591Z,19.80
2023-12-09T03:26:00.219Z,13.00
2023-12-09T03:28:28.867Z,12.90
2023-12-09T03:30:57.243Z,11.40
2023-12-09T03:33:25.724Z,11.90
2023-12-09T03:35:54.584Z,12.50
2023-12-09T03:38:22.857Z,13.60
2023-12-09T03:40:51.259Z,15.90
2023-12-09T03:43:19.901Z,17.70
2023-12-09T03:45:48.645Z,14.80
2023-12-09T03:48:17.969Z,15.20
2023-12-09T03:50:47.202Z,15.50
2023-12-09T03:53:18.867Z,14.30
2023-12-09T03:55:47.777Z,15.60
2023-12-09T03:58:16.295Z,15.60
2023-12-09T04:00:46.125Z,17.20
2023-12-09T04:03:14.631Z,14.40
2023-12-09T04:05:43.171Z,17.00
2023-12-09T04:08:11.625Z,13.50
2023-12-09T04:10:39.963Z,12.00
2023-12-09T04:13:08.557Z,10.70
2023-12-09T04:15:40.036Z,9.10
2023-12-09T04:18:08.952Z,7.10
2023-12-09T04:20:38.043Z,7.30
2023-12-09T04:23:06.570Z,8.00
2023-12-09T04:25:35.271Z,10.50
2023-12-09T04:28:04.325Z,13.20
2023-12-09T04:30:32.935Z,13.20
2023-12-09T04:33:01.755Z,11.20
2023-12-09T04:35:30.201Z,10.60
2023-12-09T04:37:58.597Z,10.20
2023-12-09T04:40:27.060Z,10.50
2023-12-09T04:42:55.396Z,10.20
2023-12-09T04:45:24.127Z,10.40
2023-12-09T04:47:53.422Z,11.50
2023-12-09T04:50:22.627Z,11.10
2023-12-09T04:52:51.173Z,12.10
2023-12-09T04:55:19.573Z,13.20
2023-12-09T04:57:48.143Z,13.40
2023-12-09T05:00:16.927Z,14.60
2023-12-09T05:02:45.719Z,18.80
2023-12-09T05:05:15.427Z,17.40
2023-12-09T05:07:43.841Z,18.70
2023-12-09T05:10:13.834Z,18.10
2023-12-09T05:12:42.491Z,14.30
2023-12-09T05:15:12.311Z,13.20
2023-12-09T05:17:40.955Z,13.00
2023-12-09T05:20:11.290Z,12.60
2023-12-09T05:22:39.765Z,9.90
2023-12-09T05:25:08.610Z,9.00
2023-12-09T05:27:37.034Z,9.20
2023-12-09T05:30:06.340Z,9.80
2023-12-09T05:32:34.807Z,9.90
2023-12-09T05:35:03.815Z,10.70
2023-12-09T05:37:32.732Z,12.20
2023-12-09T05:40:01.132Z,12.90
2023-12-09T05:42:30.120Z,13.30
2023-12-09T05:45:00.160Z,14.30
2023-12-09T05:47:29.380Z,14.50
2023-12-09T05:49:57.891Z,14.20
2023-12-09T05:52:26.616Z,13.40
2023-12-09T05:54:55.314Z,14.80
2023-12-09T05:57:24.031Z,14.30
2023-12-09T05:59:52.309Z,14.20
2023-12-09T06:02:20.842Z,13.70
2023-12-09T06:04:49.599Z,14.40
2023-12-09T06:07:18.109Z,14.20
2023-12-09T06:09:46.600Z,14.40
2023-12-09T06:12:15.131Z,15.60
2023-12-09T06:14:43.801Z,13.30
2023-12-09T06:17:12.187Z,12.40
2023-12-09T06:19:42.063Z,13.50
2023-12-09T06:22:10.768Z,12.70
2023-12-09T06:24:39.160Z,9.70
2023-12-09T06:27:07.610Z,11.70
2023-12-09T06:29:36.549Z,11.10
2023-12-09T06:32:05.937Z,10.80
2023-12-09T06:34:34.908Z,10.80
2023-12-09T06:37:03.530Z,11.30
2023-12-09T06:39:32.324Z,13.40
2023-12-09T06:42:01.561Z,13.10
2023-12-09T06:44:30.161Z,13.40
2023-12-09T06:46:58.740Z,11.60
2023-12-09T06:49:27.807Z,12.10
2023-12-09T06:51:56.328Z,12.80
2023-12-09T06:54:24.773Z,12.70
2023-12-09T06:56:53.475Z,14.00
2023-12-09T06:59:22.072Z,14.00
2023-12-09T07:01:51.126Z,14.70
2023-12-09T07:04:20.237Z,14.50
2023-12-09T07:06:48.512Z,14.00
2023-12-09T07:09:16.981Z,11.90
2023-12-09T07:11:45.766Z,11.80
2023-12-09T07:14:16.728Z,10.60
2023-12-09T07:16:45.703Z,10.70
2023-12-09T07:19:14.402Z,10.70
2023-12-09T07:21:43.056Z,11.10
2023-12-09T07:24:11.610Z,11.80
2023-12-09T07:26:40.101Z,11.20
2023-12-09T07:29:09.094Z,11.60
2023-12-09T07:31:37.684Z,9.70
2023-12-09T07:34:06.168Z,10.00
2023-12-09T07:36:34.660Z,11.60
2023-12-09T07:39:03.367Z,11.60
2023-12-09T07:41:31.996Z,12.80
2023-12-09T07:44:00.712Z,12.20
2023-12-09T07:46:29.524Z,11.70
2023-12-09T07:48:58.364Z,12.10
2023-12-09T07:51:26.726Z,9.30
2023-12-09T07:53:55.280Z,10.10
2023-12-09T07:56:23.790Z,9.30
2023-12-09T07:58:52.206Z,10.20
2023-12-09T08:01:21.149Z,10.30
2023-12-09T08:03:49.612Z,11.10
2023-12-09T08:06:18.193Z,9.90
2023-12-09T08:08:48.061Z,10.40
2023-12-09T08:11:16.577Z,10.00
2023-12-09T08:13:45.186Z,12.50
2023-12-09T08:16:14.981Z,11.60
2023-12-09T08:18:44.642Z,10.50
2023-12-09T08:21:13.197Z,12.20
2023-12-09T08:23:41.625Z,12.50
2023-12-09T08:26:11.766Z,13.10
2023-12-09T08:28:40.183Z,13.40
2023-12-09T08:31:09.712Z,9.00
2023-12-09T08:33:38.591Z,9.00
2023-12-09T08:36:08.029Z,10.30
2023-12-09T08:38:36.539Z,15.40
2023-12-09T08:41:05.369Z,14.20
2023-12-09T08:43:33.772Z,14.50
2023-12-09T08:46:02.248Z,13.10
2023-12-09T08:48:30.772Z,12.60
2023-12-09T08:50:59.439Z,12.30
2023-12-09T08:53:27.977Z,10.00
2023-12-09T08:55:56.440Z,9.30
2023-12-09T08:58:24.714Z,9.20
2023-12-09T09:00:53.678Z,10.90
2023-12-09T09:03:22.767Z,9.20
2023-12-09T09:05:51.175Z,10.90
2023-12-09T09:08:19.871Z,10.80
2023-12-09T09:10:48.747Z,12.30
2023-12-09T09:13:17.463Z,9.90
2023-12-09T09:15:45.987Z,10.50
2023-12-09T09:18:15.201Z,8.40
2023-12-09T09:20:44.376Z,10.90
2023-12-09T09:23:14.512Z,8.10
2023-12-09T09:25:43.023Z,8.60
2023-12-09T09:28:11.262Z,8.20
2023-12-09T09:30:39.772Z,6.70
2023-12-09T09:33:08.372Z,7.50
2023-12-09T09:35:37.358Z,7.30
2023-12-09T09:38:05.760Z,8.40
2023-12-09T09:40:34.397Z,6.80
2023-12-09T09:43:10.098Z,7.60
2023-12-09T09:45:39.570Z,6.70
2023-12-09T09:48:14.370Z,6.90
2023-12-09T09:50:46.797Z,7.90
2023-12-09T09:53:21.561Z,6.90
2023-12-09T09:55:50.779Z,7.10
2023-12-09T09:58:19.644Z,7.00
2023-12-09T10:00:48.211Z,7.50
2023-12-09T10:03:16.928Z,7.50
2023-12-09T10:05:45.279Z,7.70
2023-12-09T10:08:13.562Z,7.00
2023-12-09T10:10:41.878Z,7.70
2023-12-09T10:13:10.619Z,7.20
2023-12-09T10:15:39.347Z,7.80
2023-12-09T10:18:14.539Z,8.10
2023-12-09T10:20:46.877Z,8.30
2023-12-09T10:23:17.262Z,9.00
2023-12-09T10:25:48.484Z,9.20
2023-12-09T10:28:17.060Z,8.40
2023-12-09T10:30:47.303Z,8.00
2023-12-09T10:33:16.894Z,7.00
2023-12-09T10:35:46.027Z,7.90
2023-12-09T10:38:17.875Z,6.90
2023-12-09T10:40:46.140Z,7.50
2023-12-09T10:43:14.911Z,7.70
2023-12-09T10:45:44.244Z,6.70
2023-12-09T10:48:13.017Z,9.10
2023-12-09T10:50:46.304Z,8.00
2023-12-09T10:53:14.780Z,7.70
2023-12-09T10:55:43.173Z,8.80
2023-12-09T10:58:13.553Z,9.40
2023-12-09T11:00:43.343Z,9.30
2023-12-09T11:03:12.234Z,10.00
2023-12-09T11:05:45.972Z,9.70
2023-12-09T11:08:15.227Z,10.70
2023-12-09T11:10:44.189Z,10.20
2023-12-09T11:13:13.385Z,10.40
2023-12-09T11:15:44.797Z,9.90
2023-12-09T11:18:15.769Z,10.90
2023-12-09T11:20:47.594Z,10.10
2023-12-09T11:23:16.199Z,10.80
2023-12-09T11:25:45.263Z,8.60
2023-12-09T11:28:14.430Z,8.70
2023-12-09T11:30:46.333Z,10.10
2023-12-09T11:33:15.443Z,9.60
2023-12-09T11:35:47.422Z,9.70
2023-12-09T11:38:17.539Z,9.80
2023-12-09T11:40:46.985Z,9.40
2023-12-09T11:43:16.906Z,7.80
2023-12-09T11:45:45.367Z,7.90
2023-12-09T11:48:14.615Z,8.40
2023-12-09T11:50:43.045Z,7.70
2023-12-09T11:53:11.516Z,8.00
2023-12-09T11:55:40.955Z,8.00
2023-12-09T11:58:11.242Z,7.90
2023-12-09T12:00:40.172Z,8.30
2023-12-09T12:03:09.002Z,8.30
2023-12-09T12:05:38.408Z,9.70
2023-12-09T12:08:07.091Z,9.40
2023-12-09T12:10:37.696Z,10.80
2023-12-09T12:13:06.671Z,9.80
2023-12-09T12:15:35.988Z,9.90
2023-12-09T12:18:04.549Z,9.60
2023-12-09T12:20:33.030Z,10.30
2023-12-09T12:23:01.834Z,9.40
2023-12-09T12:25:30.169Z,9.30
2023-12-09T12:27:58.839Z,10.80
2023-12-09T12:30:28.348Z,9.00
2023-12-09T12:32:57.897Z,9.70
2023-12-09T12:35:27.770Z,9.70
2023-12-09T12:37:59.312Z,9.30
2023-12-09T12:40:28.161Z,11.10
2023-12-09T12:42:56.868Z,10.20
2023-12-09T12:45:28.716Z,9.30
2023-12-09T12:47:58.089Z,8.40
2023-12-09T12:50:26.931Z,9.90
2023-12-09T12:52:56.179Z,10.50
2023-12-09T12:55:25.078Z,9.90
2023-12-09T12:57:56.060Z,10.10
2023-12-09T13:00:25.347Z,9.70
2023-12-09T13:02:54.166Z,9.60
2023-12-09T13:05:24.239Z,9.90
2023-12-09T13:07:53.396Z,10.30
2023-12-09T13:10:21.834Z,10.30
2023-12-09T13:12:50.420Z,10.70
2023-12-09T13:15:18.905Z,9.80
2023-12-09T13:17:47.352Z,9.60
2023-12-09T13:20:15.826Z,9.80
2023-12-09T13:22:47.151Z,10.40
2023-12-09T13:25:17.836Z,9.60
2023-12-09T13:27:47.344Z,11.80
2023-12-09T13:30:16.162Z,10.10
2023-12-09T13:32:47.022Z,10.30
2023-12-09T13:35:16.523Z,10.50
2023-12-09T13:37:46.242Z,11.40
2023-12-09T13:40:15.310Z,9.90
2023-12-09T13:42:44.098Z,10.50
2023-12-09T13:45:14.878Z,10.80
2023-12-09T13:47:43.254Z,10.50
2023-12-09T13:50:12.745Z,9.80
2023-12-09T13:52:41.462Z,9.30
2023-12-09T13:55:10.442Z,9.00
2023-12-09T13:57:39.158Z,7.90
2023-12-09T14:00:09.534Z,8.50
2023-12-09T14:02:41.103Z,10.30
2023-12-09T14:05:11.814Z,10.20
2023-12-09T14:07:42.150Z,9.90
2023-12-09T14:10:11.116Z,8.60
2023-12-09T14:12:43.409Z,9.90
2023-12-09T14:15:15.346Z,10.30
2023-12-09T14:17:45.310Z,11.00
2023-12-09T14:20:16.652Z,11.10
2023-12-09T14:22:47.385Z,10.90
2023-12-09T14:25:15.986Z,9.90
2023-12-09T14:27:44.819Z,9.70
2023-12-09T14:30:14.257Z,10.10
2023-12-09T14:32:46.246Z,10.00
2023-12-09T14:35:16.080Z,10.40
2023-12-09T14:37:49.601Z,9.60
2023-12-09T14:40:18.569Z,9.90
2023-12-09T14:42:47.060Z,8.80
2023-12-09T14:45:16.111Z,8.80
2023-12-09T14:47:53.881Z,10.00
2023-12-09T14:50:28.256Z,8.70
2023-12-09T14:52:56.792Z,8.50
2023-12-09T14:55:25.781Z,9.40
2023-12-09T14:57:54.310Z,10.10
2023-12-09T15:00:23.638Z,11.00
2023-12-09T15:02:52.095Z,10.70
2023-12-09T15:05:20.469Z,12.00
2023-12-09T15:07:49.084Z,11.30
2023-12-09T15:10:17.424Z,11.40
2023-12-09T15:12:46.510Z,11.90
2023-12-09T15:15:16.845Z,10.40
2023-12-09T15:17:45.002Z,11.00
2023-12-09T15:20:13.504Z,11.10
2023-12-09T15:22:41.991Z,10.70
2023-12-09T15:25:10.886Z,13.60
2023-12-09T15:27:40.618Z,11.80
2023-12-09T15:30:09.713Z,12.10
2023-12-09T15:32:40.938Z,12.60
2023-12-09T15:35:09.722Z,12.20
2023-12-09T15:37:38.872Z,12.30
2023-12-09T15:40:12.363Z,12.50
2023-12-09T15:42:42.321Z,10.50
2023-12-09T15:45:12.637Z,11.30
2023-12-09T15:47:41.620Z,10.50
2023-12-09T15:50:10.536Z,10.60
2023-12-09T15:52:38.887Z,11.50
2023-12-09T15:55:07.689Z,11.30
2023-12-09T15:57:36.137Z,11.50
2023-12-09T16:00:05.415Z,11.80
2023-12-09T16:02:34.437Z,13.00
2023-12-09T16:05:03.099Z,11.80
2023-12-09T16:07:31.497Z,12.40
2023-12-09T16:09:59.928Z,12.40
2023-12-09T16:12:28.650Z,12.60
2023-12-09T16:14:57.193Z,13.00
2023-12-09T16:17:26.231Z,14.20
2023-12-09T16:19:54.849Z,15.20
2023-12-09T16:22:23.559Z,15.10
2023-12-09T16:24:52.193Z,14.00
2023-12-09T16:27:20.941Z,12.80
2023-12-09T16:29:49.265Z,12.90
2023-12-09T16:32:17.858Z,12.20
2023-12-09T16:34:46.252Z,12.90
2023-12-09T16:37:14.635Z,11.50
2023-12-09T16:39:43.166Z,10.70
2023-12-09T16:42:11.861Z,10.70
2023-12-09T16:44:40.138Z,11.20
2023-12-09T16:47:08.849Z,11.60
2023-12-09T16:49:38.748Z,11.00
2023-12-09T16:52:07.151Z,10.50
2023-12-09T16:54:35.841Z,9.40
2023-12-09T16:57:04.515Z,9.80
2023-12-09T16:59:33.014Z,10.30
2023-12-09T17:02:01.673Z,11.00
2023-12-09T17:04:30.123Z,10.90
2023-12-09T17:06:58.785Z,12.00
2023-12-09T17:09:27.464Z,12.40
2023-12-09T17:11:56.813Z,12.90
2023-12-09T17:14:25.366Z,16.50
2023-12-09T17:16:55.217Z,14.60
2023-12-09T17:19:24.333Z,13.20
2023-12-09T17:21:53.043Z,13.60
2023-12-09T17:24:22.064Z,12.50
2023-12-09T17:26:50.831Z,12.30
2023-12-09T17:29:20.302Z,12.30
2023-12-09T17:31:48.832Z,13.10
2023-12-09T17:34:17.409Z,13.40
2023-12-09T17:36:46.103Z,12.40
2023-12-09T17:39:16.068Z,12.50
2023-12-09T17:41:44.946Z,12.70
2023-12-09T17:44:13.622Z,14.20
2023-12-09T17:46:43.024Z,12.20
2023-12-09T17:49:11.793Z,11.60
2023-12-09T17:51:40.553Z,11.00
2023-12-09T17:54:09.948Z,10.90
2023-12-09T17:56:40.116Z,11.60
2023-12-09T17:59:09.070Z,10.90
2023-12-09T18:01:37.648Z,11.00
2023-12-09T18:04:06.651Z,10.60
2023-12-09T18:06:35.481Z,10.80
2023-12-09T18:09:04.248Z,11.00
2023-12-09T18:11:33.000Z,20.00
2023-12-09T18:14:03.596Z,12.50
2023-12-09T18:16:33.029Z,13.20
2023-12-09T18:19:01.655Z,14.60
2023-12-09T18:21:30.188Z,13.20
2023-12-09T18:23:58.870Z,12.80
2023-12-09T18:26:27.938Z,13.60
2023-12-09T18:28:56.419Z,11.30
2023-12-09T18:31:25.198Z,12.30
2023-12-09T18:33:53.723Z,12.90
2023-12-09T18:36:25.237Z,11.80
2023-12-09T18:38:54.330Z,13.00
2023-12-09T18:41:22.872Z,14.20
2023-12-09T18:43:51.222Z,12.10
2023-12-09T18:46:21.197Z,10.60
2023-12-09T18:48:49.973Z,9.90
2023-12-09T18:51:18.407Z,13.60
2023-12-09T18:53:46.618Z,11.70
2023-12-09T18:56:15.495Z,11.80
2023-12-09T18:58:44.320Z,10.60
2023-12-09T19:01:12.807Z,10.60
2023-12-09T19:03:41.708Z,9.50
2023-12-09T19:06:10.953Z,9.50
2023-12-09T19:08:44.044Z,10.40
2023-12-09T19:11:13.350Z,10.30
2023-12-09T19:13:42.015Z,9.40
2023-12-09T19:16:10.677Z,10.20
2023-12-09T19:18:39.274Z,10.50
2023-12-09T19:21:07.948Z,10.00
2023-12-09T19:23:36.419Z,10.80
2023-12-09T19:26:05.117Z,9.90
2023-12-09T19:28:34.073Z,11.10
2023-12-09T19:31:02.414Z,11.80
2023-12-09T19:33:30.788Z,11.20
2023-12-09T19:35:59.789Z,14.60
2023-12-09T19:38:28.221Z,12.10
2023-12-09T19:40:56.567Z,11.90
2023-12-09T19:43:24.755Z,11.60
2023-12-09T19:45:53.397Z,12.00
2023-12-09T19:48:22.043Z,11.30
2023-12-09T19:50:50.587Z,11.70
2023-12-09T19:53:19.499Z,10.60
2023-12-09T19:55:47.741Z,10.60
2023-12-09T19:58:17.121Z,9.90
2023-12-09T20:00:45.845Z,9.40
2023-12-09T20:03:15.391Z,10.60
2023-12-09T20:05:44.042Z,9.70
2023-12-09T20:08:12.992Z,11.00
2023-12-09T20:10:42.596Z,10.90
2023-12-09T20:13:10.939Z,10.90
2023-12-09T20:15:39.473Z,11.90
2023-12-09T20:18:08.968Z,11.30
2023-12-09T20:20:37.402Z,11.70
2023-12-09T20:23:06.662Z,12.00
2023-12-09T20:25:35.756Z,12.80
2023-12-09T20:28:05.900Z,11.50
2023-12-09T20:30:36.538Z,12.10
2023-12-09T20:33:05.362Z,10.90
2023-12-09T20:35:34.200Z,12.10
2023-12-09T20:38:04.622Z,11.00
2023-12-09T20:40:33.072Z,11.00
2023-12-09T20:43:01.599Z,11.70
2023-12-09T20:45:30.107Z,12.00
2023-12-09T20:47:58.688Z,12.70
2023-12-09T20:50:27.168Z,13.90
2023-12-09T20:52:56.566Z,13.40
2023-12-09T20:55:25.116Z,13.00
2023-12-09T20:57:53.657Z,13.20
2023-12-09T21:00:22.178Z,13.30
2023-12-09T21:02:50.634Z,13.00
2023-12-09T21:05:19.828Z,14.00
2023-12-09T21:07:48.806Z,12.40
2023-12-09T21:10:17.456Z,10.90
2023-12-09T21:12:46.035Z,11.30
2023-12-09T21:15:14.718Z,11.50
2023-12-09T21:17:43.197Z,12.00
2023-12-09T21:20:12.000Z,11.00
2023-12-09T21:22:40.430Z,10.70
2023-12-09T21:25:11.439Z,12.80
2023-12-09T21:27:40.205Z,13.00
2023-12-09T21:30:09.122Z,12.30
2023-12-09T21:32:37.610Z,13.30
2023-12-09T21:35:07.076Z,13.30
2023-12-09T21:37:36.128Z,13.80
2023-12-09T21:40:05.606Z,12.90
2023-12-09T21:42:34.095Z,13.30
2023-12-09T21:45:03.218Z,14.10
2023-12-09T21:47:31.795Z,13.00
2023-12-09T21:50:00.461Z,11.20
2023-12-09T21:52:29.245Z,13.00
2023-12-09T21:54:57.807Z,12.00
2023-12-09T21:57:29.002Z,12.90
2023-12-09T21:59:57.579Z,12.80
2023-12-09T22:02:26.461Z,11.70
2023-12-09T22:04:56.323Z,12.90
2023-12-09T22:07:25.581Z,12.70
2023-12-09T22:09:54.173Z,14.10
2023-12-09T22:12:22.851Z,14.20
2023-12-09T22:14:51.464Z,12.30
2023-12-09T22:17:20.418Z,13.50
2023-12-09T22:19:48.796Z,13.30
2023-12-09T22:22:17.132Z,14.10
2023-12-09T22:24:45.571Z,13.60
2023-12-09T22:27:14.047Z,14.20
2023-12-09T22:29:42.418Z,14.70
2023-12-09T22:32:10.988Z,12.60
2023-12-09T22:34:39.501Z,12.70
2023-12-09T22:37:07.983Z,13.70
2023-12-09T22:39:36.436Z,13.00
2023-12-09T22:42:06.020Z,12.00
2023-12-09T22:44:34.435Z,13.60
2023-12-09T22:47:02.807Z,13.20
2023-12-09T22:49:31.706Z,13.70
2023-12-09T22:52:03.482Z,12.90
2023-12-09T22:54:34.810Z,14.60
2023-12-09T22:57:09.812Z,13.40
2023-12-09T22:59:40.156Z,13.60
2023-12-09T23:02:09.691Z,13.70
2023-12-09T23:04:38.535Z,14.60
2023-12-09T23:07:07.327Z,13.80
2023-12-09T23:09:35.631Z,14.70
2023-12-09T23:12:04.663Z,13.90
2023-12-09T23:14:32.952Z,13.80
2023-12-09T23:17:01.483Z,12.50
2023-12-09T23:19:30.439Z,12.20
2023-12-09T23:21:58.982Z,12.20
2023-12-09T23:24:27.606Z,12.50
2023-12-09T23:26:56.318Z,12.90
2023-12-09T23:29:24.648Z,12.80
2023-12-09T23:31:53.009Z,12.50
2023-12-09T23:34:23.433Z,12.20
2023-12-09T23:36:52.020Z,14.70
2023-12-09T23:39:20.227Z,14.80
2023-12-09T23:41:49.259Z,12.00
2023-12-09T23:44:17.571Z,11.80
2023-12-09T23:46:45.848Z,12.60
2023-12-09T23:49:14.409Z,12.80
2023-12-09T23:51:43.023Z,13.50
2023-12-09T23:54:11.615Z,13.70
2023-12-09T23:56:40.196Z,13.70
2023-12-09T23:59:08.538Z,12.70
